sensor_id;sensor_type;location;lat;lon;timestamp;pressure;altitude;pressure_sealevel;temperature;humidity
41624;BME280;27319;50.306;18.926;2023-03-24T00:01:00;97647.38;;;14.06;68.00
41624;BME280;27319;50.306;18.926;2023-03-24T00:04:58;97644.50;;;14.01;67.55
41624;BME280;27319;50.306;18.926;2023-03-24T00:08:40;97645.09;;;14.03;68.23
41624;BME280;27319;50.306;18.926;2023-03-24T00:11:43;97644.44;;;13.88;69.62
41624;BME280;27319;50.306;18.926;2023-03-24T00:14:45;97643.00;;;13.92;69.90
41624;BME280;27319;50.306;18.926;2023-03-24T00:17:47;97645.91;;;13.97;68.98
41624;BME280;27319;50.306;18.926;2023-03-24T00:20:51;97643.25;;;14.03;68.11
41624;BME280;27319;50.306;18.926;2023-03-24T00:23:57;97644.50;;;14.14;66.37
41624;BME280;27319;50.306;18.926;2023-03-24T00:27:19;97632.53;;;14.29;66.79
41624;BME280;27319;50.306;18.926;2023-03-24T00:31:20;97633.38;;;14.49;65.90
41624;BME280;27319;50.306;18.926;2023-03-24T00:35:21;97628.38;;;14.33;65.91
41624;BME280;27319;50.306;18.926;2023-03-24T00:39:22;97621.09;;;14.34;66.36
41624;BME280;27319;50.306;18.926;2023-03-24T00:43:22;97616.75;;;14.39;66.25
41624;BME280;27319;50.306;18.926;2023-03-24T00:47:23;97606.75;;;14.27;66.06
41624;BME280;27319;50.306;18.926;2023-03-24T00:51:24;97608.22;;;14.29;66.09
41624;BME280;27319;50.306;18.926;2023-03-24T00:55:25;97601.72;;;14.11;68.02
41624;BME280;27319;50.306;18.926;2023-03-24T00:59:26;97593.22;;;14.01;69.10
41624;BME280;27319;50.306;18.926;2023-03-24T01:03:07;97585.50;;;13.85;69.90
41624;BME280;27319;50.306;18.926;2023-03-24T01:06:28;97591.13;;;13.90;70.09
41624;BME280;27319;50.306;18.926;2023-03-24T01:10:34;97584.25;;;13.74;71.31
41624;BME280;27319;50.306;18.926;2023-03-24T01:14:33;97572.41;;;13.75;72.03
41624;BME280;27319;50.306;18.926;2023-03-24T01:18:15;97580.47;;;13.69;71.65
41624;BME280;27319;50.306;18.926;2023-03-24T01:21:16;97572.59;;;13.61;71.99
41624;BME280;27319;50.306;18.926;2023-03-24T01:24:38;97583.78;;;13.71;70.62
41624;BME280;27319;50.306;18.926;2023-03-24T01:28:38;97571.19;;;13.91;69.49
41624;BME280;27319;50.306;18.926;2023-03-24T01:32:40;97575.75;;;13.84;70.03
41624;BME280;27319;50.306;18.926;2023-03-24T01:36:40;97580.47;;;13.69;71.35
41624;BME280;27319;50.306;18.926;2023-03-24T01:40:42;97565.50;;;13.60;71.88
41624;BME280;27319;50.306;18.926;2023-03-24T01:44:53;97566.16;;;13.68;72.14
41624;BME280;27319;50.306;18.926;2023-03-24T01:49:02;97565.31;;;13.55;71.58
41624;BME280;27319;50.306;18.926;2023-03-24T01:53:02;97574.47;;;13.67;71.48
41624;BME280;27319;50.306;18.926;2023-03-24T01:57:24;97558.69;;;13.64;71.31
41624;BME280;27319;50.306;18.926;2023-03-24T02:01:06;97558.53;;;13.85;70.03
41624;BME280;27319;50.306;18.926;2023-03-24T02:04:51;97564.06;;;13.64;70.94
41624;BME280;27319;50.306;18.926;2023-03-24T02:11:51;97551.41;;;13.51;72.33
41624;BME280;27319;50.306;18.926;2023-03-24T02:44:09;97537.63;;;13.33;73.72
41624;BME280;27319;50.306;18.926;2023-03-24T02:51:37;97523.56;;;13.31;74.32
41624;BME280;27319;50.306;18.926;2023-03-24T02:55:20;97530.16;;;13.29;74.67
41624;BME280;27319;50.306;18.926;2023-03-24T02:59:42;97531.81;;;13.30;75.31
41624;BME280;27319;50.306;18.926;2023-03-24T03:03:27;97529.31;;;13.22;76.12
41624;BME280;27319;50.306;18.926;2023-03-24T03:06:35;97525.41;;;13.24;76.22
41624;BME280;27319;50.306;18.926;2023-03-24T03:10:01;97530.13;;;13.16;77.50
41624;BME280;27319;50.306;18.926;2023-03-24T03:14:08;97531.53;;;13.05;79.20
41624;BME280;27319;50.306;18.926;2023-03-24T03:17:50;97535.06;;;13.06;79.41
41624;BME280;27319;50.306;18.926;2023-03-24T03:21:13;97529.66;;;13.06;79.52
41624;BME280;27319;50.306;18.926;2023-03-24T03:25:15;97532.97;;;13.08;80.22
41624;BME280;27319;50.306;18.926;2023-03-24T03:29:18;97526.97;;;13.06;80.83
41624;BME280;27319;50.306;18.926;2023-03-24T03:33:31;97535.91;;;13.13;80.31
41624;BME280;27319;50.306;18.926;2023-03-24T03:41:12;97525.75;;;13.08;81.82
41624;BME280;27319;50.306;18.926;2023-03-24T03:45:13;97527.97;;;12.98;82.26
41624;BME280;27319;50.306;18.926;2023-03-24T03:49:14;97527.09;;;12.91;83.17
41624;BME280;27319;50.306;18.926;2023-03-24T03:53:16;97521.69;;;12.91;82.77
41624;BME280;27319;50.306;18.926;2023-03-24T03:57:16;97524.19;;;12.93;82.94
41624;BME280;27319;50.306;18.926;2023-03-24T04:01:18;97519.00;;;12.91;82.92
41624;BME280;27319;50.306;18.926;2023-03-24T04:08:24;97517.59;;;12.95;82.87
41624;BME280;27319;50.306;18.926;2023-03-24T04:15:15;97522.91;;;12.82;84.20
41624;BME280;27319;50.306;18.926;2023-03-24T04:18:49;97519.19;;;12.83;84.42
41624;BME280;27319;50.306;18.926;2023-03-24T04:22:05;97515.59;;;12.76;84.68
41624;BME280;27319;50.306;18.926;2023-03-24T04:26:36;97515.84;;;12.81;84.13
41624;BME280;27319;50.306;18.926;2023-03-24T04:30:41;97520.41;;;12.81;85.29
41624;BME280;27319;50.306;18.926;2023-03-24T04:34:52;97523.25;;;12.73;85.28
41624;BME280;27319;50.306;18.926;2023-03-24T04:38:51;97513.50;;;12.72;86.19
41624;BME280;27319;50.306;18.926;2023-03-24T04:43:04;97509.56;;;12.68;86.99
41624;BME280;27319;50.306;18.926;2023-03-24T04:47:05;97515.69;;;12.55;88.62
41624;BME280;27319;50.306;18.926;2023-03-24T04:51:16;97502.69;;;12.59;87.91
41624;BME280;27319;50.306;18.926;2023-03-24T04:59:08;97498.09;;;12.53;87.88
41624;BME280;27319;50.306;18.926;2023-03-24T05:03:09;97496.19;;;12.47;89.95
41624;BME280;27319;50.306;18.926;2023-03-24T05:06:14;97495.94;;;12.42;90.61
41624;BME280;27319;50.306;18.926;2023-03-24T05:09:20;97490.75;;;12.40;90.74
41624;BME280;27319;50.306;18.926;2023-03-24T05:12:21;97493.50;;;12.47;89.28
41624;BME280;27319;50.306;18.926;2023-03-24T05:15:42;97487.06;;;12.48;90.15
41624;BME280;27319;50.306;18.926;2023-03-24T05:19:23;97489.53;;;12.43;91.58
41624;BME280;27319;50.306;18.926;2023-03-24T05:23:24;97489.53;;;12.43;91.34
41624;BME280;27319;50.306;18.926;2023-03-24T05:27:25;97475.03;;;12.37;91.50
41624;BME280;27319;50.306;18.926;2023-03-24T05:31:25;97480.41;;;12.37;92.74
41624;BME280;27319;50.306;18.926;2023-03-24T05:35:26;97486.25;;;12.47;92.05
41624;BME280;27319;50.306;18.926;2023-03-24T05:39:27;97483.09;;;12.37;93.07
41624;BME280;27319;50.306;18.926;2023-03-24T05:43:28;97478.56;;;12.44;92.63
41624;BME280;27319;50.306;18.926;2023-03-24T05:47:29;97482.53;;;12.48;92.48
41624;BME280;27319;50.306;18.926;2023-03-24T05:51:30;97480.41;;;12.44;93.59
41624;BME280;27319;50.306;18.926;2023-03-24T05:55:31;97481.22;;;12.38;94.21
41624;BME280;27319;50.306;18.926;2023-03-24T05:59:32;97485.00;;;12.43;94.13
41624;BME280;27319;50.306;18.926;2023-03-24T06:03:13;97467.88;;;12.57;93.03
41624;BME280;27319;50.306;18.926;2023-03-24T06:06:36;97473.63;;;12.48;94.22
41624;BME280;27319;50.306;18.926;2023-03-24T06:10:37;97474.91;;;12.58;92.42
41624;BME280;27319;50.306;18.926;2023-03-24T06:14:38;97478.84;;;12.56;94.76
41624;BME280;27319;50.306;18.926;2023-03-24T06:18:39;97477.78;;;12.50;93.85
41624;BME280;27319;50.306;18.926;2023-03-24T06:22:43;97482.97;;;12.52;95.47
41624;BME280;27319;50.306;18.926;2023-03-24T06:26:43;97471.66;;;12.63;94.58
41624;BME280;27319;50.306;18.926;2023-03-24T06:30:44;97476.56;;;12.53;95.54
41624;BME280;27319;50.306;18.926;2023-03-24T06:34:45;97477.19;;;12.55;95.82
41624;BME280;27319;50.306;18.926;2023-03-24T06:38:46;97482.59;;;12.61;95.21
41624;BME280;27319;50.306;18.926;2023-03-24T06:42:47;97474.09;;;12.58;95.50
41624;BME280;27319;50.306;18.926;2023-03-24T06:46:48;97468.53;;;12.66;95.74
41624;BME280;27319;50.306;18.926;2023-03-24T06:50:50;97468.97;;;12.63;96.57
41624;BME280;27319;50.306;18.926;2023-03-24T06:54:49;97473.53;;;12.69;96.52
41624;BME280;27319;50.306;18.926;2023-03-24T06:58:30;97466.50;;;12.74;95.62
41624;BME280;27319;50.306;18.926;2023-03-24T07:01:31;97462.41;;;12.78;94.47
41624;BME280;27319;50.306;18.926;2023-03-24T07:04:34;97461.97;;;12.75;95.27
41624;BME280;27319;50.306;18.926;2023-03-24T07:07:36;97467.38;;;12.81;97.40
41624;BME280;27319;50.306;18.926;2023-03-24T07:10:38;97472.75;;;12.81;95.67
41624;BME280;27319;50.306;18.926;2023-03-24T07:13:39;97469.91;;;12.89;94.05
41624;BME280;27319;50.306;18.926;2023-03-24T07:16:40;97471.38;;;12.92;95.94
41624;BME280;27319;50.306;18.926;2023-03-24T07:20:01;97480.53;;;12.97;95.94
41624;BME280;27319;50.306;18.926;2023-03-24T07:24:02;97481.47;;;12.83;96.67
41624;BME280;27319;50.306;18.926;2023-03-24T07:28:03;97477.38;;;12.94;96.28
41624;BME280;27319;50.306;18.926;2023-03-24T07:32:04;97481.72;;;12.95;96.40
41624;BME280;27319;50.306;18.926;2023-03-24T07:36:05;97472.63;;;12.96;96.06
41624;BME280;27319;50.306;18.926;2023-03-24T07:40:06;97477.66;;;13.05;95.17
41624;BME280;27319;50.306;18.926;2023-03-24T07:44:07;97470.81;;;13.03;98.19
41624;BME280;27319;50.306;18.926;2023-03-24T07:48:08;97463.13;;;13.00;96.58
41624;BME280;27319;50.306;18.926;2023-03-24T07:52:09;97454.66;;;13.03;97.81
41624;BME280;27319;50.306;18.926;2023-03-24T07:56:09;97445.97;;;13.07;98.36
41624;BME280;27319;50.306;18.926;2023-03-24T08:00:10;97451.78;;;13.24;95.05
41624;BME280;27319;50.306;18.926;2023-03-24T08:03:51;97454.50;;;13.37;97.26
41624;BME280;27319;50.306;18.926;2023-03-24T08:06:55;97454.75;;;13.35;97.65
41624;BME280;27319;50.306;18.926;2023-03-24T08:09:58;97448.09;;;13.38;98.90
41624;BME280;27319;50.306;18.926;2023-03-24T08:12:59;97449.34;;;13.48;99.25
41624;BME280;27319;50.306;18.926;2023-03-24T08:16:00;97445.63;;;13.62;99.21
41624;BME280;27319;50.306;18.926;2023-03-24T08:19:01;97441.31;;;13.74;99.11
41624;BME280;27319;50.306;18.926;2023-03-24T08:22:03;97434.03;;;13.88;95.66
41624;BME280;27319;50.306;18.926;2023-03-24T08:25:24;97440.25;;;14.21;97.36
41624;BME280;27319;50.306;18.926;2023-03-24T08:28:31;97442.28;;;14.45;93.10
41624;BME280;27319;50.306;18.926;2023-03-24T08:31:52;97436.41;;;14.61;93.55
41624;BME280;27319;50.306;18.926;2023-03-24T08:35:17;97438.66;;;14.77;93.74
41624;BME280;27319;50.306;18.926;2023-03-24T08:38:38;97428.66;;;14.84;91.55
41624;BME280;27319;50.306;18.926;2023-03-24T08:42:39;97429.13;;;15.12;87.03
41624;BME280;27319;50.306;18.926;2023-03-24T08:46:20;97428.13;;;15.44;85.68
41624;BME280;27319;50.306;18.926;2023-03-24T08:49:21;97435.13;;;15.58;87.39
41624;BME280;27319;50.306;18.926;2023-03-24T08:52:23;97414.28;;;15.58;85.26
41624;BME280;27319;50.306;18.926;2023-03-24T08:55:24;97415.28;;;15.70;85.54
41624;BME280;27319;50.306;18.926;2023-03-24T08:58:25;97409.56;;;15.78;83.10
41624;BME280;27319;50.306;18.926;2023-03-24T09:01:46;97406.19;;;15.83;82.52
41624;BME280;27319;50.306;18.926;2023-03-24T09:05:27;97410.69;;;15.95;77.72
41624;BME280;27319;50.306;18.926;2023-03-24T09:08:28;97401.75;;;16.13;76.14
41624;BME280;27319;50.306;18.926;2023-03-24T09:11:29;97403.66;;;16.12;75.96
41624;BME280;27319;50.306;18.926;2023-03-24T09:14:50;97393.38;;;16.21;74.56
41624;BME280;27319;50.306;18.926;2023-03-24T09:18:51;97394.28;;;16.33;73.12
41624;BME280;27319;50.306;18.926;2023-03-24T09:22:52;97390.53;;;16.52;69.05
41624;BME280;27319;50.306;18.926;2023-03-24T09:26:53;97389.03;;;16.56;71.10
41624;BME280;27319;50.306;18.926;2023-03-24T09:30:57;97387.81;;;16.70;70.47
41624;BME280;27319;50.306;18.926;2023-03-24T09:34:58;97378.03;;;16.87;69.99
41624;BME280;27319;50.306;18.926;2023-03-24T09:38:58;97378.50;;;16.84;70.17
41624;BME280;27319;50.306;18.926;2023-03-24T09:46:42;97364.72;;;16.85;68.85
41624;BME280;27319;50.306;18.926;2023-03-24T09:58:29;97359.75;;;17.12;68.16
41624;BME280;27319;50.306;18.926;2023-03-24T10:02:30;97357.78;;;17.30;68.86
41624;BME280;27319;50.306;18.926;2023-03-24T10:06:19;97362.22;;;17.43;67.91
41624;BME280;27319;50.306;18.926;2023-03-24T10:09:47;97356.94;;;17.59;68.49
41624;BME280;27319;50.306;18.926;2023-03-24T10:21:24;97349.91;;;18.04;65.53
41624;BME280;27319;50.306;18.926;2023-03-24T10:29:35;97355.81;;;18.13;63.96
41624;BME280;27319;50.306;18.926;2023-03-24T10:33:37;97352.97;;;18.08;59.97
41624;BME280;27319;50.306;18.926;2023-03-24T10:37:37;97352.28;;;18.12;61.10
41624;BME280;27319;50.306;18.926;2023-03-24T10:41:38;97351.31;;;18.30;59.34
41624;BME280;27319;50.306;18.926;2023-03-24T10:45:42;97341.28;;;18.19;58.52
41624;BME280;27319;50.306;18.926;2023-03-24T10:58:14;97354.19;;;18.23;58.97
41624;BME280;27319;50.306;18.926;2023-03-24T11:05:36;97343.09;;;18.36;60.03
41624;BME280;27319;50.306;18.926;2023-03-24T11:08:39;97332.56;;;18.40;58.69
41624;BME280;27319;50.306;18.926;2023-03-24T11:11:40;97331.50;;;18.29;59.43
41624;BME280;27319;50.306;18.926;2023-03-24T11:14:44;97317.91;;;18.41;58.12
41624;BME280;27319;50.306;18.926;2023-03-24T11:18:07;97317.97;;;18.57;58.50
41624;BME280;27319;50.306;18.926;2023-03-24T11:22:08;97309.84;;;18.85;58.78
41624;BME280;27319;50.306;18.926;2023-03-24T11:26:10;97309.03;;;19.13;56.71
41624;BME280;27319;50.306;18.926;2023-03-24T11:30:11;97294.34;;;19.14;57.85
41624;BME280;27319;50.306;18.926;2023-03-24T11:34:08;97300.69;;;19.03;56.23
41624;BME280;27319;50.306;18.926;2023-03-24T11:37:48;97287.63;;;18.88;55.93
41624;BME280;27319;50.306;18.926;2023-03-24T11:41:12;97284.25;;;18.70;55.78
41624;BME280;27319;50.306;18.926;2023-03-24T11:48:49;97276.16;;;18.58;58.18
41624;BME280;27319;50.306;18.926;2023-03-24T11:52:52;97275.53;;;18.68;55.17
41624;BME280;27319;50.306;18.926;2023-03-24T11:56:51;97265.41;;;18.52;58.10
41624;BME280;27319;50.306;18.926;2023-03-24T12:00:47;97273.00;;;18.50;57.93
41624;BME280;27319;50.306;18.926;2023-03-24T12:08:11;97256.16;;;18.64;55.42
41624;BME280;27319;50.306;18.926;2023-03-24T12:15:46;97253.78;;;18.68;55.91
41624;BME280;27319;50.306;18.926;2023-03-24T12:26:16;97237.56;;;18.45;57.28
41624;BME280;27319;50.306;18.926;2023-03-24T12:40:59;97230.09;;;18.01;61.92
41624;BME280;27319;50.306;18.926;2023-03-24T12:48:36;97218.88;;;18.09;61.77
41624;BME280;27319;50.306;18.926;2023-03-24T12:52:24;97207.78;;;17.99;60.69
41624;BME280;27319;50.306;18.926;2023-03-24T12:59:43;97208.72;;;18.04;59.73
41624;BME280;27319;50.306;18.926;2023-03-24T13:03:37;97205.66;;;18.01;61.73
41624;BME280;27319;50.306;18.926;2023-03-24T13:06:50;97196.31;;;17.97;63.04
41624;BME280;27319;50.306;18.926;2023-03-24T13:10:00;97194.78;;;18.01;60.12
41624;BME280;27319;50.306;18.926;2023-03-24T13:16:22;97186.91;;;17.88;62.17
41624;BME280;27319;50.306;18.926;2023-03-24T13:19:44;97190.59;;;17.82;62.55
41624;BME280;27319;50.306;18.926;2023-03-24T13:27:38;97189.53;;;17.83;61.53
41624;BME280;27319;50.306;18.926;2023-03-24T13:32:02;97176.06;;;17.76;62.12
41624;BME280;27319;50.306;18.926;2023-03-24T13:36:27;97186.91;;;17.88;59.88
41624;BME280;27319;50.306;18.926;2023-03-24T13:39:41;97180.88;;;17.97;58.88
41624;BME280;27319;50.306;18.926;2023-03-24T13:43:50;97162.59;;;17.81;61.75
41624;BME280;27319;50.306;18.926;2023-03-24T13:48:17;97162.25;;;17.78;63.62
41624;BME280;27319;50.306;18.926;2023-03-24T13:51:47;97161.69;;;17.76;63.33
41624;BME280;27319;50.306;18.926;2023-03-24T13:55:08;97160.16;;;17.80;62.83
41624;BME280;27319;50.306;18.926;2023-03-24T14:13:45;97150.50;;;17.15;74.73
41624;BME280;27319;50.306;18.926;2023-03-24T14:23:46;97129.16;;;17.07;72.57
41624;BME280;27319;50.306;18.926;2023-03-24T14:27:34;97123.97;;;16.94;70.12
41624;BME280;27319;50.306;18.926;2023-03-24T14:34:55;97115.00;;;17.16;61.83
41624;BME280;27319;50.306;18.926;2023-03-24T14:38:56;97103.59;;;17.14;62.31
41624;BME280;27319;50.306;18.926;2023-03-24T14:45:58;97104.59;;;17.36;56.64
41624;BME280;27319;50.306;18.926;2023-03-24T14:50:01;97120.56;;;17.44;55.08
41624;BME280;27319;50.306;18.926;2023-03-24T14:54:03;97118.31;;;17.30;55.28
41624;BME280;27319;50.306;18.926;2023-03-24T14:58:08;97111.25;;;17.29;55.92
41624;BME280;27319;50.306;18.926;2023-03-24T15:05:43;97115.72;;;17.23;56.70
41624;BME280;27319;50.306;18.926;2023-03-24T15:09:08;97110.06;;;17.25;54.98
41624;BME280;27319;50.306;18.926;2023-03-24T15:13:17;97100.03;;;17.14;55.35
41624;BME280;27319;50.306;18.926;2023-03-24T15:16:55;97092.16;;;17.24;55.81
41624;BME280;27319;50.306;18.926;2023-03-24T15:20:27;97094.63;;;17.25;54.60
41624;BME280;27319;50.306;18.926;2023-03-24T15:28:18;97098.97;;;17.15;55.07
41624;BME280;27319;50.306;18.926;2023-03-24T15:32:17;97110.06;;;17.02;57.38
41624;BME280;27319;50.306;18.926;2023-03-24T15:36:20;97096.75;;;17.00;58.00
41624;BME280;27319;50.306;18.926;2023-03-24T15:44:07;97112.50;;;16.69;60.38
41624;BME280;27319;50.306;18.926;2023-03-24T15:48:12;97111.22;;;16.60;61.98
41624;BME280;27319;50.306;18.926;2023-03-24T16:03:18;97117.16;;;16.09;66.99
41624;BME280;27319;50.306;18.926;2023-03-24T16:06:28;97121.03;;;15.84;68.29
41624;BME280;27319;50.306;18.926;2023-03-24T16:09:36;97118.94;;;15.86;68.28
41624;BME280;27319;50.306;18.926;2023-03-24T16:12:40;97120.41;;;15.70;71.19
41624;BME280;27319;50.306;18.926;2023-03-24T16:19:28;97136.53;;;15.59;71.03
41624;BME280;27319;50.306;18.926;2023-03-24T16:23:29;97135.13;;;15.56;71.92
41624;BME280;27319;50.306;18.926;2023-03-24T16:27:29;97131.66;;;15.49;72.59
41624;BME280;27319;50.306;18.926;2023-03-24T16:31:33;97141.97;;;15.41;73.87
41624;BME280;27319;50.306;18.926;2023-03-24T16:35:34;97133.13;;;15.27;74.61
41624;BME280;27319;50.306;18.926;2023-03-24T16:39:35;97129.34;;;15.10;76.10
41624;BME280;27319;50.306;18.926;2023-03-24T16:43:36;97136.91;;;15.02;76.41
41624;BME280;27319;50.306;18.926;2023-03-24T16:47:37;97139.25;;;14.98;76.79
41624;BME280;27319;50.306;18.926;2023-03-24T16:51:38;97121.91;;;15.06;75.93
41624;BME280;27319;50.306;18.926;2023-03-24T16:55:39;97117.28;;;14.88;78.16
41624;BME280;27319;50.306;18.926;2023-03-24T16:59:19;97128.47;;;14.92;77.88
41624;BME280;27319;50.306;18.926;2023-03-24T17:02:40;97113.50;;;14.71;80.21
41624;BME280;27319;50.306;18.926;2023-03-24T17:06:38;97096.13;;;14.67;80.34
41624;BME280;27319;50.306;18.926;2023-03-24T17:10:38;97063.91;;;14.41;83.17
41624;BME280;27319;50.306;18.926;2023-03-24T17:14:38;97013.72;;;14.34;82.79
41624;BME280;27319;50.306;18.926;2023-03-24T17:18:19;97062.88;;;14.42;81.71
41624;BME280;27319;50.306;18.926;2023-03-24T17:21:21;97095.50;;;14.41;81.05
41624;BME280;27319;50.306;18.926;2023-03-24T17:24:42;97137.72;;;14.60;79.69
41624;BME280;27319;50.306;18.926;2023-03-24T17:28:45;97162.53;;;14.44;80.16
41624;BME280;27319;50.306;18.926;2023-03-24T17:32:52;97177.66;;;14.51;79.62
41624;BME280;27319;50.306;18.926;2023-03-24T17:36:53;97168.31;;;14.47;79.66
41624;BME280;27319;50.306;18.926;2023-03-24T17:41:00;97172.28;;;14.45;79.72
41624;BME280;27319;50.306;18.926;2023-03-24T17:45:00;97174.22;;;14.38;79.84
41624;BME280;27319;50.306;18.926;2023-03-24T17:49:01;97176.88;;;14.44;79.33
41624;BME280;27319;50.306;18.926;2023-03-24T17:53:02;97173.16;;;14.39;79.84
41624;BME280;27319;50.306;18.926;2023-03-24T17:57:06;97172.19;;;14.33;79.67
41624;BME280;27319;50.306;18.926;2023-03-24T18:01:07;97159.56;;;14.14;80.56
41624;BME280;27319;50.306;18.926;2023-03-24T18:05:11;97155.03;;;14.08;81.19
41624;BME280;27319;50.306;18.926;2023-03-24T18:09:13;97150.50;;;14.09;79.95
41624;BME280;27319;50.306;18.926;2023-03-24T18:13:14;97142.50;;;14.27;78.43
41624;BME280;27319;50.306;18.926;2023-03-24T18:16:55;97150.88;;;14.19;78.92
41624;BME280;27319;50.306;18.926;2023-03-24T18:19:56;97136.34;;;14.13;79.70
41624;BME280;27319;50.306;18.926;2023-03-24T18:23:19;97109.31;;;13.89;81.95
41624;BME280;27319;50.306;18.926;2023-03-24T18:27:20;97143.53;;;13.95;80.37
41624;BME280;27319;50.306;18.926;2023-03-24T18:31:21;97136.91;;;13.84;81.50
41624;BME280;27319;50.306;18.926;2023-03-24T18:35:22;97130.25;;;13.87;81.02
41624;BME280;27319;50.306;18.926;2023-03-24T18:39:23;97151.16;;;13.98;79.72
41624;BME280;27319;50.306;18.926;2023-03-24T18:43:24;97161.31;;;14.02;79.70
41624;BME280;27319;50.306;18.926;2023-03-24T18:47:05;97162.94;;;14.10;79.71
41624;BME280;27319;50.306;18.926;2023-03-24T18:50:26;97148.47;;;13.98;80.73
41624;BME280;27319;50.306;18.926;2023-03-24T18:54:27;97155.19;;;13.89;80.68
41624;BME280;27319;50.306;18.926;2023-03-24T18:58:28;97139.41;;;13.86;80.56
41624;BME280;27319;50.306;18.926;2023-03-24T19:02:28;97140.16;;;13.99;79.89
41624;BME280;27319;50.306;18.926;2023-03-24T19:06:29;97149.94;;;13.94;80.17
41624;BME280;27319;50.306;18.926;2023-03-24T19:10:31;97154.75;;;13.85;81.15
41624;BME280;27319;50.306;18.926;2023-03-24T19:14:31;97151.03;;;13.86;80.77
41624;BME280;27319;50.306;18.926;2023-03-24T19:18:11;97152.63;;;13.94;80.17
41624;BME280;27319;50.306;18.926;2023-03-24T19:21:12;97141.63;;;14.02;79.81
41624;BME280;27319;50.306;18.926;2023-03-24T19:24:33;97131.34;;;13.79;81.71
41624;BME280;27319;50.306;18.926;2023-03-24T19:28:34;97141.50;;;13.84;80.85
41624;BME280;27319;50.306;18.926;2023-03-24T19:32:35;97136.03;;;13.97;80.52
41624;BME280;27319;50.306;18.926;2023-03-24T19:36:36;97149.78;;;13.89;80.68
41624;BME280;27319;50.306;18.926;2023-03-24T19:40:38;97145.13;;;14.02;79.77
41624;BME280;27319;50.306;18.926;2023-03-24T19:44:18;97154.75;;;13.85;81.12
41624;BME280;27319;50.306;18.926;2023-03-24T19:47:18;97151.06;;;13.80;81.41
41624;BME280;27319;50.306;18.926;2023-03-24T19:50:39;97156.44;;;13.80;81.57
41624;BME280;27319;50.306;18.926;2023-03-24T19:54:40;97150.78;;;13.88;81.35
41624;BME280;27319;50.306;18.926;2023-03-24T19:58:41;97150.41;;;13.84;81.31
41624;BME280;27319;50.306;18.926;2023-03-24T20:02:42;97144.47;;;13.69;82.36
41624;BME280;27319;50.306;18.926;2023-03-24T20:06:18;97153.56;;;13.75;82.38
41624;BME280;27319;50.306;18.926;2023-03-24T20:09:41;97140.72;;;13.70;81.74
41624;BME280;27319;50.306;18.926;2023-03-24T20:13:42;97139.94;;;13.63;82.95
41624;BME280;27319;50.306;18.926;2023-03-24T20:17:23;97139.50;;;13.60;82.81
41624;BME280;27319;50.306;18.926;2023-03-24T20:20:45;97142.00;;;13.61;82.10
41624;BME280;27319;50.306;18.926;2023-03-24T20:24:46;97139.69;;;13.65;82.12
41624;BME280;27319;50.306;18.926;2023-03-24T20:28:47;97145.34;;;13.57;81.96
41624;BME280;27319;50.306;18.926;2023-03-24T20:32:48;97141.66;;;13.45;82.93
41624;BME280;27319;50.306;18.926;2023-03-24T20:36:29;97145.34;;;13.57;82.24
41624;BME280;27319;50.306;18.926;2023-03-24T20:39:50;97147.91;;;13.39;83.31
41624;BME280;27319;50.306;18.926;2023-03-24T20:43:51;97147.06;;;13.45;82.99
41624;BME280;27319;50.306;18.926;2023-03-24T20:47:52;97142.69;;;13.44;83.12
41624;BME280;27319;50.306;18.926;2023-03-24T20:51:33;97138.78;;;13.33;83.38
41624;BME280;27319;50.306;18.926;2023-03-24T20:55:04;97146.09;;;13.20;85.03
41624;BME280;27319;50.306;18.926;2023-03-24T20:59:05;97138.16;;;13.31;83.38
41624;BME280;27319;50.306;18.926;2023-03-24T21:03:08;97139.03;;;13.25;84.17
41624;BME280;27319;50.306;18.926;2023-03-24T21:06:14;97146.69;;;13.28;83.75
41624;BME280;27319;50.306;18.926;2023-03-24T21:09:40;97142.72;;;13.31;83.60
41624;BME280;27319;50.306;18.926;2023-03-24T21:13:41;97160.97;;;13.35;83.22
41624;BME280;27319;50.306;18.926;2023-03-24T21:17:22;97153.69;;;13.49;82.21
41624;BME280;27319;50.306;18.926;2023-03-24T21:20:49;97161.56;;;13.44;83.20
41624;BME280;27319;50.306;18.926;2023-03-24T21:24:49;97162.41;;;13.38;83.29
41624;BME280;27319;50.306;18.926;2023-03-24T21:28:50;97158.47;;;13.34;83.36
41624;BME280;27319;50.306;18.926;2023-03-24T21:32:52;97154.53;;;13.43;83.31
41624;BME280;27319;50.306;18.926;2023-03-24T21:36:52;97152.25;;;13.40;83.29
41624;BME280;27319;50.306;18.926;2023-03-24T21:40:59;97155.78;;;13.40;83.02
41624;BME280;27319;50.306;18.926;2023-03-24T21:44:56;97149.09;;;13.49;82.43
41624;BME280;27319;50.306;18.926;2023-03-24T21:48:57;97139.59;;;13.40;82.65
41624;BME280;27319;50.306;18.926;2023-03-24T21:52:58;97140.81;;;13.51;82.15
41624;BME280;27319;50.306;18.926;2023-03-24T21:56:39;97140.19;;;13.49;82.31
41624;BME280;27319;50.306;18.926;2023-03-24T21:59:40;97137.91;;;13.52;82.48
41624;BME280;27319;50.306;18.926;2023-03-24T22:02:45;97143.28;;;13.52;82.20
41624;BME280;27319;50.306;18.926;2023-03-24T22:06:06;97144.75;;;13.42;82.38
41624;BME280;27319;50.306;18.926;2023-03-24T22:10:08;97150.16;;;13.48;82.39
41624;BME280;27319;50.306;18.926;2023-03-24T22:14:08;97158.38;;;13.60;82.04
41624;BME280;27319;50.306;18.926;2023-03-24T22:18:09;97145.41;;;13.44;82.73
41624;BME280;27319;50.306;18.926;2023-03-24T22:22:10;97139.16;;;13.50;82.63
41624;BME280;27319;50.306;18.926;2023-03-24T22:26:12;97140.81;;;13.44;82.91
41624;BME280;27319;50.306;18.926;2023-03-24T22:30:12;97146.84;;;13.46;82.98
41624;BME280;27319;50.306;18.926;2023-03-24T22:34:13;97146.59;;;13.48;82.66
41624;BME280;27319;50.306;18.926;2023-03-24T22:38:14;97145.78;;;13.47;82.92
41624;BME280;27319;50.306;18.926;2023-03-24T22:42:15;97142.25;;;13.53;82.20